4XCGI LLHZ-LLHZ

Flight info

Callsign 4XCGI
Flight time 0h 4m
Altitude 0800
Route CIRCUITS
Aircraft C172/L-SD/C

Departure

Time 2026-04-15 18:57
Airport Herzliya Airport (LLHZ)

Arrival

Time 2026-04-15 19:01
Airport Herzliya Airport (LLHZ)
Time Latitude Longitude Altitude Speed Heading
2026-04-15 18:50 32.18076 34.83119 98 ft 0 kts 20°
2026-04-15 18:53 32.18084 34.83153 99 ft 13 kts 109°
2026-04-15 18:53 32.18044 34.83289 102 ft 23 kts 109°
2026-04-15 18:53 32.17983 34.83495 107 ft 28 kts 109°
2026-04-15 18:54 32.17925 34.83690 114 ft 22 kts 109°
2026-04-15 18:54 32.17884 34.83831 120 ft 12 kts 110°
2026-04-15 18:54 32.17881 34.83840 120 ft 0 kts 100°
2026-04-15 18:55 32.17881 34.83841 120 ft 2 kts 99°
2026-04-15 18:55 32.17914 34.83853 122 ft 3 kts 270°
2026-04-15 18:55 32.17915 34.83849 122 ft 1 kts 284°
2026-04-15 18:56 32.17986 34.83610 110 ft 60 kts 290°
2026-04-15 18:56 32.18158 34.83070 252 ft 74 kts 300°
2026-04-15 18:56 32.18596 34.82809 512 ft 75 kts 343°
2026-04-15 18:56 32.19146 34.82838 684 ft 86 kts 29°
2026-04-15 18:57 32.19347 34.83522 828 ft 102 kts 99°
2026-04-15 18:57 32.19189 34.84388 868 ft 111 kts 104°
2026-04-15 18:57 32.18920 34.85256 869 ft 107 kts 141°
2026-04-15 18:57 32.18230 34.85366 792 ft 107 kts 198°
2026-04-15 18:58 32.17669 34.85045 889 ft 72 kts 235°
2026-04-15 18:58 32.17749 34.84451 346 ft 79 kts 281°
2026-04-15 18:58 32.17901 34.83896 144 ft 59 kts 287°
2026-04-15 18:58 32.18015 34.83509 106 ft 57 kts 289°
2026-04-15 18:59 32.18187 34.82992 259 ft 70 kts 300°
2026-04-15 18:59 32.18617 34.82721 506 ft 77 kts 354°
2026-04-15 18:59 32.19152 34.82843 723 ft 81 kts 14°
2026-04-15 18:59 32.19499 34.83404 826 ft 104 kts 91°
2026-04-15 19:00 32.19270 34.84257 852 ft 111 kts 114°
2026-04-15 19:00 32.18976 34.85069 883 ft 98 kts 122°
2026-04-15 19:00 32.18471 34.85372 827 ft 73 kts 191°
2026-04-15 19:00 32.17988 34.85266 596 ft 71 kts 203°
2026-04-15 19:01 32.17642 34.84952 361 ft 68 kts 265°
2026-04-15 19:01 32.17746 34.84414 292 ft 70 kts 286°
2026-04-15 19:01 32.17899 34.83901 144 ft 61 kts 289°
2026-04-15 19:01 32.18010 34.83525 106 ft 49 kts 288°
2026-04-15 19:02 32.18164 34.83013 217 ft 72 kts 291°
2026-04-15 19:02 32.18570 34.82714 436 ft 80 kts 355°
2026-04-15 19:02 32.19115 34.82827 654 ft 84 kts 22°
2026-04-15 19:02 32.19425 34.83405 822 ft 98 kts 90°
2026-04-15 19:03 32.19239 34.84270 842 ft 115 kts 112°
2026-04-15 19:03 32.18955 34.85130 841 ft 101 kts 119°
2026-04-15 19:03 32.18484 34.85402 762 ft 73 kts 198°
2026-04-15 19:03 32.17982 34.85250 565 ft 71 kts 202°
2026-04-15 19:04 32.17633 34.84946 416 ft 64 kts 272°
2026-04-15 19:04 32.17751 34.84425 278 ft 65 kts 287°
2026-04-15 19:04 32.17897 34.83914 154 ft 60 kts 288°
2026-04-15 19:04 32.18010 34.83524 106 ft 55 kts 289°
2026-04-15 19:05 32.18177 34.82999 248 ft 71 kts 295°
2026-04-15 19:05 32.18598 34.82709 432 ft 82 kts 354°
2026-04-15 19:05 32.19150 34.82829 664 ft 85 kts 26°
2026-04-15 19:05 32.19605 34.83429 741 ft 107 kts 56°
2026-04-15 19:06 32.19995 34.84194 857 ft 112 kts 58°
2026-04-15 19:06 32.20391 34.85005 852 ft 115 kts 59°
2026-04-15 19:06 32.20834 34.85789 827 ft 115 kts 58°
2026-04-15 19:06 32.21215 34.86598 828 ft 117 kts 60°
2026-04-15 19:07 32.21580 34.87437 825 ft 114 kts 65°
2026-04-15 19:07 32.21970 34.88255 826 ft 115 kts 38°
2026-04-15 19:07 32.22610 34.88810 882 ft 115 kts 34°
2026-04-15 19:07 32.23274 34.89399 848 ft 119 kts 33°
2026-04-15 19:08 32.23980 34.89897 801 ft 117 kts 19°
2026-04-15 19:08 32.24723 34.90232 849 ft 113 kts 20°
2026-04-15 19:08 32.25466 34.90541 858 ft 111 kts 14°
2026-04-15 19:08 32.26209 34.90763 830 ft 111 kts 11°
2026-04-15 19:09 32.26865 34.90969 1254 ft 79 kts 13°
2026-04-15 19:09 32.27411 34.91188 1441 ft 86 kts 15°
2026-04-15 19:09 32.28018 34.91438 1493 ft 101 kts 16°
2026-04-15 19:09 32.28704 34.91722 1500 ft 106 kts 16°
2026-04-15 19:10 32.29378 34.92008 1506 ft 95 kts 17°
2026-04-15 19:10 32.29940 34.92272 1507 ft 77 kts 17°
2026-04-15 19:10 32.30400 34.92599 1325 ft 81 kts 52°
2026-04-15 19:10 32.30331 34.93201 1078 ft 76 kts 149°
2026-04-15 19:11 32.29835 34.93280 845 ft 72 kts 192°
2026-04-15 19:11 32.29309 34.93194 695 ft 87 kts 198°
2026-04-15 19:11 32.28685 34.93004 701 ft 95 kts 201°
2026-04-15 19:11 32.28108 34.92790 1156 ft 69 kts 199°
2026-04-15 19:12 32.27561 34.92628 1213 ft 93 kts 203°
2026-04-15 19:12 32.26910 34.92330 1216 ft 106 kts 206°
2026-04-15 19:12 32.26290 34.91889 1245 ft 99 kts 239°
2026-04-15 19:12 32.25967 34.91136 1192 ft 106 kts 249°
2026-04-15 19:13 32.25729 34.90340 1195 ft 99 kts 255°
2026-04-15 19:13 32.25566 34.89567 1253 ft 94 kts 263°
2026-04-15 19:13 32.25677 34.88800 1217 ft 101 kts 296°
2026-04-15 19:13 32.26000 34.88063 1217 ft 99 kts 290°
2026-04-15 19:14 32.26194 34.87294 1172 ft 99 kts 283°
2026-04-15 19:14 32.26550 34.86627 1363 ft 95 kts 330°
2026-04-15 19:14 32.27167 34.86534 1713 ft 87 kts
2026-04-15 19:14 32.27856 34.86590 1740 ft 105 kts 360°
2026-04-15 19:15 32.28450 34.86695 2197 ft 83 kts
2026-04-15 19:15 32.29016 34.86769 2437 ft 86 kts
2026-04-15 19:15 32.29697 34.86813 2479 ft 99 kts 352°
2026-04-15 19:15 32.29978 34.87415 2545 ft 112 kts 150°
2026-04-15 19:16 32.29347 34.87136 2633 ft 88 kts 205°
2026-04-15 19:16 32.28718 34.86917 2334 ft 78 kts 196°
2026-04-15 19:16 32.28200 34.86852 2126 ft 81 kts 197°
2026-04-15 19:16 32.27742 34.86651 2039 ft 71 kts 211°
2026-04-15 19:17 32.27312 34.86396 1854 ft 68 kts 210°
2026-04-15 19:17 32.26878 34.86154 1656 ft 70 kts 212°
2026-04-15 19:17 32.26477 34.85824 1398 ft 67 kts 230°
2026-04-15 19:17 32.26175 34.85332 820 ft 81 kts 247°
2026-04-15 19:18 32.25723 34.85049 495 ft 77 kts 197°
2026-04-15 19:18 32.25182 34.84922 638 ft 76 kts 196°
2026-04-15 19:18 32.24495 34.85653 598 ft 81 kts 57°
2026-04-15 19:19 32.24927 34.85775 383 ft 80 kts 314°
2026-04-15 19:19 32.25422 34.85573 646 ft 82 kts 353°
2026-04-15 19:19 32.25977 34.85641 923 ft 82 kts 11°
2026-04-15 19:19 32.26518 34.85828 1162 ft 79 kts
2026-04-15 19:20 32.27051 34.85984 1382 ft 78 kts
2026-04-15 19:20 32.27590 34.86098 1612 ft 81 kts
2026-04-15 19:20 32.28152 34.86112 1850 ft 79 kts 356°
2026-04-15 19:20 32.28710 34.86142 2038 ft 83 kts
2026-04-15 19:21 32.29270 34.86243 2306 ft 83 kts
2026-04-15 19:21 32.29840 34.86529 2318 ft 104 kts 77°
2026-04-15 19:21 32.29344 34.86923 2352 ft 101 kts 185°
2026-04-15 19:21 32.28727 34.86876 2340 ft 71 kts 193°
2026-04-15 19:22 32.28279 34.86781 2282 ft 67 kts 199°
2026-04-15 19:22 32.27827 34.86668 2314 ft 70 kts 197°
2026-04-15 19:22 32.27257 34.86504 2284 ft 92 kts 200°
2026-04-15 19:22 32.26626 34.86473 2339 ft 91 kts 185°
2026-04-15 19:23 32.26164 34.86231 2378 ft 55 kts 201°
2026-04-15 19:23 32.25625 34.86104 2334 ft 90 kts 198°
2026-04-15 19:23 32.25065 34.85953 2586 ft 43 kts 202°
2026-04-15 19:23 32.24718 34.85591 2230 ft 88 kts 268°
2026-04-15 19:24 32.25236 34.85411 2285 ft 103 kts 12°
2026-04-15 19:24 32.25692 34.85564 1946 ft 108 kts 354°
2026-04-15 19:24 32.26343 34.85582 2296 ft 85 kts 359°
2026-04-15 19:24 32.26903 34.85761 2000 ft 90 kts 23°
2026-04-15 19:25 32.27115 34.86427 1727 ft 92 kts 112°
2026-04-15 19:25 32.26642 34.86843 1465 ft 89 kts 181°
2026-04-15 19:25 32.26079 34.86711 1358 ft 81 kts 203°
2026-04-15 19:25 32.25562 34.86407 1264 ft 87 kts 217°
2026-04-15 19:26 32.25426 34.85856 1272 ft 95 kts 337°
2026-04-15 19:26 32.25478 34.86368 1182 ft 103 kts 165°
2026-04-15 19:26 32.24818 34.86598 1217 ft 100 kts 170°
2026-04-15 19:26 32.24137 34.86899 1218 ft 109 kts 161°
2026-04-15 19:27 32.23437 34.87276 1215 ft 113 kts 159°
2026-04-15 19:27 32.22736 34.87671 1200 ft 109 kts 158°
2026-04-15 19:27 32.22056 34.87876 1188 ft 99 kts 210°
2026-04-15 19:27 32.21563 34.87334 1229 ft 94 kts 231°
2026-04-15 19:28 32.21130 34.86777 1255 ft 91 kts 230°
2026-04-15 19:28 32.20682 34.86232 1206 ft 92 kts 230°
2026-04-15 19:28 32.20207 34.85733 1200 ft 93 kts 203°
2026-04-15 19:28 32.19551 34.85620 1212 ft 94 kts 192°
2026-04-15 19:29 32.18925 34.85503 1139 ft 85 kts 195°
2026-04-15 19:29 32.18436 34.85387 997 ft 68 kts 200°
2026-04-15 19:29 32.17938 34.85240 655 ft 71 kts 202°
2026-04-15 19:29 32.17656 34.84852 366 ft 67 kts 272°
2026-04-15 19:30 32.17780 34.84317 241 ft 66 kts 288°
2026-04-15 19:30 32.17928 34.83800 126 ft 59 kts 289°
2026-04-15 19:30 32.18023 34.83485 105 ft 29 kts 290°
2026-04-15 19:30 32.18047 34.83332 102 ft 8 kts 199°
2026-04-15 19:31 32.18044 34.83291 102 ft 0 kts 290°
2026-04-15 19:31 32.18044 34.83290 102 ft 2 kts 290°
2026-04-15 19:31 32.18038 34.83257 101 ft 3 kts 195°